sensor_id;sensor_type;location;lat;lon;timestamp;P1;durP1;ratioP1;P2;durP2;ratioP2
69305;SDS011;56427;51.580;4.656;2023-04-06T00:00:24;22.20;;;11.52;;
69305;SDS011;56427;51.580;4.656;2023-04-06T00:02:49;21.13;;;11.50;;
69305;SDS011;56427;51.580;4.656;2023-04-06T00:05:15;24.73;;;12.50;;
69305;SDS011;56427;51.580;4.656;2023-04-06T00:07:40;20.23;;;11.27;;
69305;SDS011;56427;51.580;4.656;2023-04-06T00:10:06;22.13;;;11.32;;
69305;SDS011;56427;51.580;4.656;2023-04-06T00:12:32;22.05;;;11.40;;
69305;SDS011;56427;51.580;4.656;2023-04-06T00:14:57;21.95;;;12.07;;
69305;SDS011;56427;51.580;4.656;2023-04-06T00:17:22;19.45;;;11.40;;
69305;SDS011;56427;51.580;4.656;2023-04-06T00:19:48;22.47;;;11.60;;
69305;SDS011;56427;51.580;4.656;2023-04-06T00:22:13;20.67;;;11.90;;
69305;SDS011;56427;51.580;4.656;2023-04-06T00:24:39;21.75;;;11.80;;
69305;SDS011;56427;51.580;4.656;2023-04-06T00:27:05;20.80;;;11.73;;
69305;SDS011;56427;51.580;4.656;2023-04-06T00:29:30;20.73;;;11.37;;
69305;SDS011;56427;51.580;4.656;2023-04-06T00:32:01;25.13;;;12.20;;
69305;SDS011;56427;51.580;4.656;2023-04-06T00:34:27;22.23;;;11.93;;
69305;SDS011;56427;51.580;4.656;2023-04-06T00:36:52;22.92;;;12.70;;
69305;SDS011;56427;51.580;4.656;2023-04-06T00:39:18;24.43;;;12.13;;
69305;SDS011;56427;51.580;4.656;2023-04-06T00:41:45;21.43;;;12.43;;
69305;SDS011;56427;51.580;4.656;2023-04-06T00:44:14;22.67;;;12.07;;
69305;SDS011;56427;51.580;4.656;2023-04-06T00:46:39;20.00;;;11.43;;
69305;SDS011;56427;51.580;4.656;2023-04-06T00:49:05;22.07;;;12.47;;
69305;SDS011;56427;51.580;4.656;2023-04-06T00:51:30;24.65;;;12.45;;
69305;SDS011;56427;51.580;4.656;2023-04-06T00:53:58;23.03;;;12.20;;
69305;SDS011;56427;51.580;4.656;2023-04-06T00:56:23;20.63;;;11.85;;
69305;SDS011;56427;51.580;4.656;2023-04-06T00:58:51;23.00;;;13.27;;
69305;SDS011;56427;51.580;4.656;2023-04-06T01:01:16;24.08;;;12.73;;
69305;SDS011;56427;51.580;4.656;2023-04-06T01:03:42;20.50;;;11.63;;
69305;SDS011;56427;51.580;4.656;2023-04-06T01:06:09;25.63;;;12.73;;
69305;SDS011;56427;51.580;4.656;2023-04-06T01:08:34;27.60;;;13.70;;
69305;SDS011;56427;51.580;4.656;2023-04-06T01:11:04;23.02;;;12.20;;
69305;SDS011;56427;51.580;4.656;2023-04-06T01:13:30;20.42;;;11.95;;
69305;SDS011;56427;51.580;4.656;2023-04-06T01:15:55;22.53;;;12.73;;
69305;SDS011;56427;51.580;4.656;2023-04-06T01:18:27;23.50;;;13.30;;
69305;SDS011;56427;51.580;4.656;2023-04-06T01:20:53;22.02;;;13.02;;
69305;SDS011;56427;51.580;4.656;2023-04-06T01:23:18;19.60;;;11.97;;
69305;SDS011;56427;51.580;4.656;2023-04-06T01:25:44;21.65;;;12.65;;
69305;SDS011;56427;51.580;4.656;2023-04-06T01:28:09;21.07;;;12.53;;
69305;SDS011;56427;51.580;4.656;2023-04-06T01:30:35;21.07;;;12.13;;
69305;SDS011;56427;51.580;4.656;2023-04-06T01:33:00;22.40;;;12.73;;
69305;SDS011;56427;51.580;4.656;2023-04-06T01:35:29;24.02;;;12.63;;
69305;SDS011;56427;51.580;4.656;2023-04-06T01:37:55;24.88;;;13.23;;
69305;SDS011;56427;51.580;4.656;2023-04-06T01:40:20;23.23;;;13.30;;
69305;SDS011;56427;51.580;4.656;2023-04-06T01:42:45;23.33;;;12.80;;
69305;SDS011;56427;51.580;4.656;2023-04-06T01:45:11;23.23;;;13.07;;
69305;SDS011;56427;51.580;4.656;2023-04-06T01:47:37;20.40;;;12.65;;
69305;SDS011;56427;51.580;4.656;2023-04-06T01:50:02;23.73;;;12.83;;
69305;SDS011;56427;51.580;4.656;2023-04-06T01:52:30;22.45;;;12.18;;
69305;SDS011;56427;51.580;4.656;2023-04-06T01:54:56;27.73;;;13.03;;
69305;SDS011;56427;51.580;4.656;2023-04-06T01:57:21;22.03;;;12.87;;
69305;SDS011;56427;51.580;4.656;2023-04-06T01:59:47;22.63;;;13.30;;
69305;SDS011;56427;51.580;4.656;2023-04-06T02:02:12;21.63;;;13.03;;
69305;SDS011;56427;51.580;4.656;2023-04-06T02:04:38;26.25;;;12.73;;
69305;SDS011;56427;51.580;4.656;2023-04-06T02:07:03;27.20;;;12.47;;
69305;SDS011;56427;51.580;4.656;2023-04-06T02:09:29;21.90;;;12.33;;
69305;SDS011;56427;51.580;4.656;2023-04-06T02:11:54;27.15;;;13.20;;
69305;SDS011;56427;51.580;4.656;2023-04-06T02:14:21;24.03;;;12.33;;
69305;SDS011;56427;51.580;4.656;2023-04-06T02:16:48;24.23;;;13.43;;
69305;SDS011;56427;51.580;4.656;2023-04-06T02:19:14;26.17;;;14.02;;
69305;SDS011;56427;51.580;4.656;2023-04-06T02:21:39;24.00;;;13.23;;
69305;SDS011;56427;51.580;4.656;2023-04-06T02:24:05;26.10;;;12.90;;
69305;SDS011;56427;51.580;4.656;2023-04-06T02:26:31;23.25;;;12.73;;
69305;SDS011;56427;51.580;4.656;2023-04-06T02:28:56;22.47;;;12.43;;
69305;SDS011;56427;51.580;4.656;2023-04-06T02:31:22;24.03;;;13.50;;
69305;SDS011;56427;51.580;4.656;2023-04-06T02:33:47;24.33;;;12.47;;
69305;SDS011;56427;51.580;4.656;2023-04-06T02:36:12;25.63;;;13.05;;
69305;SDS011;56427;51.580;4.656;2023-04-06T02:38:38;26.80;;;13.33;;
69305;SDS011;56427;51.580;4.656;2023-04-06T02:41:03;25.63;;;12.97;;
69305;SDS011;56427;51.580;4.656;2023-04-06T02:43:28;27.43;;;14.10;;
69305;SDS011;56427;51.580;4.656;2023-04-06T02:45:54;25.88;;;13.88;;
69305;SDS011;56427;51.580;4.656;2023-04-06T02:48:19;25.27;;;13.45;;
69305;SDS011;56427;51.580;4.656;2023-04-06T02:50:45;25.20;;;12.83;;
69305;SDS011;56427;51.580;4.656;2023-04-06T02:53:10;29.17;;;13.10;;
69305;SDS011;56427;51.580;4.656;2023-04-06T02:55:35;22.93;;;12.43;;
69305;SDS011;56427;51.580;4.656;2023-04-06T02:58:01;25.93;;;13.27;;
69305;SDS011;56427;51.580;4.656;2023-04-06T03:00:26;27.47;;;13.77;;
69305;SDS011;56427;51.580;4.656;2023-04-06T03:02:52;22.83;;;13.97;;
69305;SDS011;56427;51.580;4.656;2023-04-06T03:05:17;30.80;;;14.68;;
69305;SDS011;56427;51.580;4.656;2023-04-06T03:07:42;23.07;;;13.30;;
69305;SDS011;56427;51.580;4.656;2023-04-06T03:10:08;24.70;;;12.73;;
69305;SDS011;56427;51.580;4.656;2023-04-06T03:12:34;28.52;;;14.23;;
69305;SDS011;56427;51.580;4.656;2023-04-06T03:15:00;26.83;;;13.13;;
69305;SDS011;56427;51.580;4.656;2023-04-06T03:17:25;25.47;;;12.90;;
69305;SDS011;56427;51.580;4.656;2023-04-06T03:19:51;25.15;;;12.65;;
69305;SDS011;56427;51.580;4.656;2023-04-06T03:22:16;25.67;;;13.02;;
69305;SDS011;56427;51.580;4.656;2023-04-06T03:24:41;26.03;;;12.40;;
69305;SDS011;56427;51.580;4.656;2023-04-06T03:27:07;24.80;;;13.00;;
69305;SDS011;56427;51.580;4.656;2023-04-06T03:29:32;23.60;;;12.37;;
69305;SDS011;56427;51.580;4.656;2023-04-06T03:31:57;23.30;;;12.07;;
69305;SDS011;56427;51.580;4.656;2023-04-06T03:34:23;26.50;;;12.97;;
69305;SDS011;56427;51.580;4.656;2023-04-06T03:36:48;26.50;;;11.93;;
69305;SDS011;56427;51.580;4.656;2023-04-06T03:39:16;28.42;;;13.30;;
69305;SDS011;56427;51.580;4.656;2023-04-06T03:41:42;24.67;;;12.43;;
69305;SDS011;56427;51.580;4.656;2023-04-06T03:44:09;26.23;;;12.38;;
69305;SDS011;56427;51.580;4.656;2023-04-06T03:46:34;24.23;;;12.23;;
69305;SDS011;56427;51.580;4.656;2023-04-06T03:49:00;27.70;;;12.68;;
69305;SDS011;56427;51.580;4.656;2023-04-06T03:51:25;25.53;;;12.50;;
69305;SDS011;56427;51.580;4.656;2023-04-06T03:53:51;25.45;;;13.05;;
69305;SDS011;56427;51.580;4.656;2023-04-06T03:56:17;23.67;;;12.00;;
69305;SDS011;56427;51.580;4.656;2023-04-06T03:58:42;24.07;;;11.50;;
69305;SDS011;56427;51.580;4.656;2023-04-06T04:01:14;24.77;;;12.20;;
69305;SDS011;56427;51.580;4.656;2023-04-06T04:03:39;29.37;;;11.77;;
69305;SDS011;56427;51.580;4.656;2023-04-06T04:06:05;27.45;;;12.30;;
69305;SDS011;56427;51.580;4.656;2023-04-06T04:08:30;22.33;;;11.57;;
69305;SDS011;56427;51.580;4.656;2023-04-06T04:10:56;24.33;;;12.03;;
69305;SDS011;56427;51.580;4.656;2023-04-06T04:13:21;24.30;;;11.70;;
69305;SDS011;56427;51.580;4.656;2023-04-06T04:15:47;23.75;;;11.40;;
69305;SDS011;56427;51.580;4.656;2023-04-06T04:18:12;24.08;;;11.10;;
69305;SDS011;56427;51.580;4.656;2023-04-06T04:20:38;25.00;;;11.57;;
69305;SDS011;56427;51.580;4.656;2023-04-06T04:23:03;25.85;;;12.23;;
69305;SDS011;56427;51.580;4.656;2023-04-06T04:25:29;27.00;;;13.20;;
69305;SDS011;56427;51.580;4.656;2023-04-06T04:27:55;26.20;;;12.60;;
69305;SDS011;56427;51.580;4.656;2023-04-06T04:30:20;24.13;;;12.25;;
69305;SDS011;56427;51.580;4.656;2023-04-06T04:32:46;23.98;;;12.07;;
69305;SDS011;56427;51.580;4.656;2023-04-06T04:35:11;24.93;;;12.50;;
69305;SDS011;56427;51.580;4.656;2023-04-06T04:37:38;26.17;;;12.70;;
69305;SDS011;56427;51.580;4.656;2023-04-06T04:40:04;24.25;;;12.40;;
69305;SDS011;56427;51.580;4.656;2023-04-06T04:42:30;24.40;;;11.88;;
69305;SDS011;56427;51.580;4.656;2023-04-06T04:44:56;22.07;;;11.07;;
69305;SDS011;56427;51.580;4.656;2023-04-06T04:47:21;24.20;;;11.60;;
69305;SDS011;56427;51.580;4.656;2023-04-06T04:49:46;27.00;;;12.20;;
69305;SDS011;56427;51.580;4.656;2023-04-06T04:52:12;26.10;;;12.82;;
69305;SDS011;56427;51.580;4.656;2023-04-06T04:54:37;29.63;;;12.60;;
69305;SDS011;56427;51.580;4.656;2023-04-06T04:57:05;27.45;;;12.43;;
69305;SDS011;56427;51.580;4.656;2023-04-06T04:59:30;24.40;;;11.53;;
69305;SDS011;56427;51.580;4.656;2023-04-06T05:01:56;26.80;;;12.40;;
69305;SDS011;56427;51.580;4.656;2023-04-06T05:04:21;28.70;;;12.53;;
69305;SDS011;56427;51.580;4.656;2023-04-06T05:06:47;25.85;;;13.07;;
69305;SDS011;56427;51.580;4.656;2023-04-06T05:09:12;26.07;;;12.20;;
69305;SDS011;56427;51.580;4.656;2023-04-06T05:11:38;29.23;;;12.60;;
69305;SDS011;56427;51.580;4.656;2023-04-06T05:14:03;22.33;;;11.70;;
69305;SDS011;56427;51.580;4.656;2023-04-06T05:16:28;22.38;;;12.60;;
69305;SDS011;56427;51.580;4.656;2023-04-06T05:18:54;22.17;;;12.70;;
69305;SDS011;56427;51.580;4.656;2023-04-06T05:21:21;26.90;;;12.65;;
69305;SDS011;56427;51.580;4.656;2023-04-06T05:23:47;29.63;;;12.93;;
69305;SDS011;56427;51.580;4.656;2023-04-06T05:26:12;22.30;;;12.00;;
69305;SDS011;56427;51.580;4.656;2023-04-06T05:28:37;23.97;;;12.87;;
69305;SDS011;56427;51.580;4.656;2023-04-06T05:31:03;31.75;;;11.95;;
69305;SDS011;56427;51.580;4.656;2023-04-06T05:33:29;25.45;;;12.65;;
69305;SDS011;56427;51.580;4.656;2023-04-06T05:35:54;25.90;;;12.20;;
69305;SDS011;56427;51.580;4.656;2023-04-06T05:38:23;23.73;;;11.93;;
69305;SDS011;56427;51.580;4.656;2023-04-06T05:40:48;22.55;;;12.52;;
69305;SDS011;56427;51.580;4.656;2023-04-06T05:43:14;24.77;;;12.63;;
69305;SDS011;56427;51.580;4.656;2023-04-06T05:45:39;24.87;;;11.90;;
69305;SDS011;56427;51.580;4.656;2023-04-06T05:48:05;24.40;;;11.73;;
69305;SDS011;56427;51.580;4.656;2023-04-06T05:50:30;25.37;;;12.53;;
69305;SDS011;56427;51.580;4.656;2023-04-06T05:52:56;25.92;;;12.70;;
69305;SDS011;56427;51.580;4.656;2023-04-06T05:55:24;28.27;;;11.90;;
69305;SDS011;56427;51.580;4.656;2023-04-06T05:57:49;25.98;;;12.35;;
69305;SDS011;56427;51.580;4.656;2023-04-06T06:00:15;22.87;;;12.93;;
69305;SDS011;56427;51.580;4.656;2023-04-06T06:02:41;24.70;;;12.00;;
69305;SDS011;56427;51.580;4.656;2023-04-06T06:05:07;26.35;;;12.38;;
69305;SDS011;56427;51.580;4.656;2023-04-06T06:07:33;22.77;;;12.35;;
69305;SDS011;56427;51.580;4.656;2023-04-06T06:09:59;23.57;;;12.30;;
69305;SDS011;56427;51.580;4.656;2023-04-06T06:12:24;26.23;;;12.87;;
69305;SDS011;56427;51.580;4.656;2023-04-06T06:14:50;25.42;;;12.85;;
69305;SDS011;56427;51.580;4.656;2023-04-06T06:17:15;25.50;;;12.37;;
69305;SDS011;56427;51.580;4.656;2023-04-06T06:19:41;23.13;;;12.23;;
69305;SDS011;56427;51.580;4.656;2023-04-06T06:22:06;26.63;;;13.33;;
69305;SDS011;56427;51.580;4.656;2023-04-06T06:24:31;24.37;;;12.23;;
69305;SDS011;56427;51.580;4.656;2023-04-06T06:26:57;28.20;;;14.45;;
69305;SDS011;56427;51.580;4.656;2023-04-06T06:29:25;29.08;;;14.45;;
69305;SDS011;56427;51.580;4.656;2023-04-06T06:31:50;25.63;;;12.48;;
69305;SDS011;56427;51.580;4.656;2023-04-06T06:34:15;35.07;;;14.73;;
69305;SDS011;56427;51.580;4.656;2023-04-06T06:36:41;25.47;;;13.20;;
69305;SDS011;56427;51.580;4.656;2023-04-06T06:39:06;26.67;;;13.80;;
69305;SDS011;56427;51.580;4.656;2023-04-06T06:41:32;29.42;;;15.32;;
69305;SDS011;56427;51.580;4.656;2023-04-06T06:43:57;28.25;;;14.15;;
69305;SDS011;56427;51.580;4.656;2023-04-06T06:46:22;25.70;;;12.70;;
69305;SDS011;56427;51.580;4.656;2023-04-06T06:48:48;26.33;;;13.73;;
69305;SDS011;56427;51.580;4.656;2023-04-06T06:51:13;32.87;;;12.47;;
69305;SDS011;56427;51.580;4.656;2023-04-06T06:53:39;27.45;;;12.88;;
69305;SDS011;56427;51.580;4.656;2023-04-06T06:56:05;25.57;;;13.47;;
69305;SDS011;56427;51.580;4.656;2023-04-06T06:58:30;24.77;;;13.73;;
69305;SDS011;56427;51.580;4.656;2023-04-06T07:00:56;22.97;;;12.53;;
69305;SDS011;56427;51.580;4.656;2023-04-06T07:03:23;24.23;;;13.15;;
69305;SDS011;56427;51.580;4.656;2023-04-06T07:05:48;24.43;;;13.20;;
69305;SDS011;56427;51.580;4.656;2023-04-06T07:08:18;25.95;;;13.65;;
69305;SDS011;56427;51.580;4.656;2023-04-06T07:10:44;27.90;;;13.05;;
69305;SDS011;56427;51.580;4.656;2023-04-06T07:13:09;26.20;;;13.93;;
69305;SDS011;56427;51.580;4.656;2023-04-06T07:15:35;28.00;;;12.70;;
69305;SDS011;56427;51.580;4.656;2023-04-06T07:18:00;26.42;;;13.00;;
69305;SDS011;56427;51.580;4.656;2023-04-06T07:20:26;26.92;;;13.32;;
69305;SDS011;56427;51.580;4.656;2023-04-06T07:22:53;24.25;;;13.13;;
69305;SDS011;56427;51.580;4.656;2023-04-06T07:25:19;27.27;;;13.45;;
69305;SDS011;56427;51.580;4.656;2023-04-06T07:27:45;24.30;;;13.37;;
69305;SDS011;56427;51.580;4.656;2023-04-06T07:30:10;28.05;;;13.88;;
69305;SDS011;56427;51.580;4.656;2023-04-06T07:32:36;26.23;;;13.93;;
69305;SDS011;56427;51.580;4.656;2023-04-06T07:35:03;27.00;;;14.03;;
69305;SDS011;56427;51.580;4.656;2023-04-06T07:37:29;26.98;;;13.85;;
69305;SDS011;56427;51.580;4.656;2023-04-06T07:39:57;27.95;;;13.95;;
69305;SDS011;56427;51.580;4.656;2023-04-06T07:42:22;30.00;;;14.10;;
69305;SDS011;56427;51.580;4.656;2023-04-06T07:44:48;27.30;;;14.00;;
69305;SDS011;56427;51.580;4.656;2023-04-06T07:47:13;31.58;;;14.60;;
69305;SDS011;56427;51.580;4.656;2023-04-06T07:49:39;30.98;;;13.98;;
69305;SDS011;56427;51.580;4.656;2023-04-06T07:52:07;25.92;;;13.68;;
69305;SDS011;56427;51.580;4.656;2023-04-06T07:54:32;35.37;;;15.37;;
69305;SDS011;56427;51.580;4.656;2023-04-06T07:56:58;29.80;;;15.17;;
69305;SDS011;56427;51.580;4.656;2023-04-06T07:59:23;30.90;;;15.87;;
69305;SDS011;56427;51.580;4.656;2023-04-06T08:01:49;34.80;;;17.43;;
69305;SDS011;56427;51.580;4.656;2023-04-06T08:04:14;29.17;;;16.75;;
69305;SDS011;56427;51.580;4.656;2023-04-06T08:06:40;31.37;;;17.20;;
69305;SDS011;56427;51.580;4.656;2023-04-06T08:09:06;30.65;;;16.77;;
69305;SDS011;56427;51.580;4.656;2023-04-06T08:11:31;29.43;;;16.20;;
69305;SDS011;56427;51.580;4.656;2023-04-06T08:14:00;28.60;;;16.25;;
69305;SDS011;56427;51.580;4.656;2023-04-06T08:16:25;32.67;;;16.67;;
69305;SDS011;56427;51.580;4.656;2023-04-06T08:18:50;30.85;;;17.48;;
69305;SDS011;56427;51.580;4.656;2023-04-06T08:21:16;28.83;;;16.50;;
69305;SDS011;56427;51.580;4.656;2023-04-06T08:23:41;29.97;;;16.10;;
69305;SDS011;56427;51.580;4.656;2023-04-06T08:26:07;23.73;;;14.33;;
69305;SDS011;56427;51.580;4.656;2023-04-06T08:28:32;24.43;;;13.40;;
69305;SDS011;56427;51.580;4.656;2023-04-06T08:31:02;23.05;;;12.65;;
69305;SDS011;56427;51.580;4.656;2023-04-06T08:33:28;22.70;;;13.07;;
69305;SDS011;56427;51.580;4.656;2023-04-06T08:35:54;22.13;;;12.27;;
69305;SDS011;56427;51.580;4.656;2023-04-06T08:38:19;23.47;;;11.73;;
69305;SDS011;56427;51.580;4.656;2023-04-06T08:40:45;23.30;;;12.38;;
69305;SDS011;56427;51.580;4.656;2023-04-06T08:43:13;23.42;;;12.10;;
69305;SDS011;56427;51.580;4.656;2023-04-06T08:45:40;21.60;;;11.00;;
69305;SDS011;56427;51.580;4.656;2023-04-06T08:48:06;21.10;;;11.93;;
69305;SDS011;56427;51.580;4.656;2023-04-06T08:50:33;20.13;;;11.75;;
69305;SDS011;56427;51.580;4.656;2023-04-06T08:52:59;18.45;;;11.60;;
69305;SDS011;56427;51.580;4.656;2023-04-06T08:55:26;18.30;;;10.85;;
69305;SDS011;56427;51.580;4.656;2023-04-06T08:57:52;19.48;;;9.88;;
69305;SDS011;56427;51.580;4.656;2023-04-06T09:00:20;15.73;;;8.68;;
69305;SDS011;56427;51.580;4.656;2023-04-06T09:02:46;14.25;;;8.80;;
69305;SDS011;56427;51.580;4.656;2023-04-06T09:05:14;16.23;;;9.43;;
69305;SDS011;56427;51.580;4.656;2023-04-06T09:07:40;14.93;;;8.00;;
69305;SDS011;56427;51.580;4.656;2023-04-06T09:10:06;16.83;;;8.30;;
69305;SDS011;56427;51.580;4.656;2023-04-06T09:12:32;16.67;;;7.83;;
69305;SDS011;56427;51.580;4.656;2023-04-06T09:14:59;15.32;;;8.10;;
69305;SDS011;56427;51.580;4.656;2023-04-06T09:17:31;14.52;;;8.45;;
69305;SDS011;56427;51.580;4.656;2023-04-06T09:20:02;19.52;;;8.73;;
69305;SDS011;56427;51.580;4.656;2023-04-06T09:22:40;15.98;;;7.70;;
69305;SDS011;56427;51.580;4.656;2023-04-06T09:25:09;14.07;;;6.70;;
69305;SDS011;56427;51.580;4.656;2023-04-06T09:27:36;11.95;;;6.93;;
69305;SDS011;56427;51.580;4.656;2023-04-06T09:30:04;16.13;;;8.02;;
69305;SDS011;56427;51.580;4.656;2023-04-06T09:32:30;14.48;;;7.68;;
69305;SDS011;56427;51.580;4.656;2023-04-06T09:35:05;18.33;;;8.53;;
69305;SDS011;56427;51.580;4.656;2023-04-06T09:37:31;14.32;;;7.97;;
69305;SDS011;56427;51.580;4.656;2023-04-06T09:40:03;16.67;;;8.30;;
69305;SDS011;56427;51.580;4.656;2023-04-06T09:42:30;17.27;;;8.80;;
69305;SDS011;56427;51.580;4.656;2023-04-06T09:44:55;15.07;;;7.93;;
69305;SDS011;56427;51.580;4.656;2023-04-06T09:47:21;17.93;;;8.50;;
69305;SDS011;56427;51.580;4.656;2023-04-06T09:49:48;17.75;;;7.82;;
69305;SDS011;56427;51.580;4.656;2023-04-06T09:52:15;15.85;;;8.55;;
69305;SDS011;56427;51.580;4.656;2023-04-06T09:54:43;15.77;;;8.52;;
69305;SDS011;56427;51.580;4.656;2023-04-06T09:57:11;16.42;;;9.82;;
69305;SDS011;56427;51.580;4.656;2023-04-06T10:02:34;17.30;;;9.10;;
69305;SDS011;56427;51.580;4.656;2023-04-06T10:07:57;14.88;;;8.68;;
69305;SDS011;56427;51.580;4.656;2023-04-06T10:10:25;17.73;;;9.40;;
69305;SDS011;56427;51.580;4.656;2023-04-06T10:12:51;15.93;;;9.40;;
69305;SDS011;56427;51.580;4.656;2023-04-06T10:15:16;17.48;;;10.93;;
69305;SDS011;56427;51.580;4.656;2023-04-06T10:17:42;19.53;;;10.27;;
69305;SDS011;56427;51.580;4.656;2023-04-06T10:20:09;20.38;;;11.32;;
69305;SDS011;56427;51.580;4.656;2023-04-06T10:22:49;20.92;;;11.40;;
69305;SDS011;56427;51.580;4.656;2023-04-06T10:25:31;17.05;;;10.48;;
69305;SDS011;56427;51.580;4.656;2023-04-06T10:27:59;19.17;;;11.18;;
69305;SDS011;56427;51.580;4.656;2023-04-06T10:30:31;23.33;;;10.70;;
69305;SDS011;56427;51.580;4.656;2023-04-06T10:32:58;15.95;;;10.02;;
69305;SDS011;56427;51.580;4.656;2023-04-06T10:35:23;17.40;;;10.27;;
69305;SDS011;56427;51.580;4.656;2023-04-06T10:37:51;19.02;;;10.20;;
69305;SDS011;56427;51.580;4.656;2023-04-06T10:40:19;17.73;;;9.82;;
69305;SDS011;56427;51.580;4.656;2023-04-06T10:42:46;16.25;;;9.15;;
69305;SDS011;56427;51.580;4.656;2023-04-06T10:45:18;17.97;;;10.30;;
69305;SDS011;56427;51.580;4.656;2023-04-06T10:47:45;15.10;;;8.48;;
69305;SDS011;56427;51.580;4.656;2023-04-06T10:50:11;16.67;;;8.70;;
69305;SDS011;56427;51.580;4.656;2023-04-06T10:52:41;15.15;;;8.40;;
69305;SDS011;56427;51.580;4.656;2023-04-06T10:55:08;13.57;;;8.80;;
69305;SDS011;56427;51.580;4.656;2023-04-06T10:57:35;14.00;;;8.40;;
69305;SDS011;56427;51.580;4.656;2023-04-06T11:00:03;15.32;;;9.00;;
69305;SDS011;56427;51.580;4.656;2023-04-06T11:02:32;13.18;;;8.23;;
69305;SDS011;56427;51.580;4.656;2023-04-06T11:04:59;11.27;;;7.70;;
69305;SDS011;56427;51.580;4.656;2023-04-06T11:07:25;16.92;;;8.20;;
69305;SDS011;56427;51.580;4.656;2023-04-06T11:09:51;16.20;;;8.93;;
69305;SDS011;56427;51.580;4.656;2023-04-06T11:12:21;13.97;;;8.40;;
69305;SDS011;56427;51.580;4.656;2023-04-06T11:14:55;17.00;;;8.25;;
69305;SDS011;56427;51.580;4.656;2023-04-06T11:17:28;18.60;;;10.48;;
69305;SDS011;56427;51.580;4.656;2023-04-06T11:19:54;18.63;;;8.88;;
69305;SDS011;56427;51.580;4.656;2023-04-06T11:22:20;17.60;;;9.27;;
69305;SDS011;56427;51.580;4.656;2023-04-06T11:24:45;19.77;;;9.98;;
69305;SDS011;56427;51.580;4.656;2023-04-06T11:27:11;16.73;;;9.43;;
69305;SDS011;56427;51.580;4.656;2023-04-06T11:29:36;19.20;;;10.32;;
69305;SDS011;56427;51.580;4.656;2023-04-06T11:32:06;18.10;;;9.65;;
69305;SDS011;56427;51.580;4.656;2023-04-06T11:34:33;19.90;;;10.05;;
69305;SDS011;56427;51.580;4.656;2023-04-06T11:37:02;20.58;;;10.43;;
69305;SDS011;56427;51.580;4.656;2023-04-06T11:39:42;18.77;;;10.68;;
69305;SDS011;56427;51.580;4.656;2023-04-06T11:42:20;15.93;;;10.20;;
69305;SDS011;56427;51.580;4.656;2023-04-06T11:44:56;18.75;;;10.27;;
69305;SDS011;56427;51.580;4.656;2023-04-06T11:47:32;17.15;;;10.07;;
69305;SDS011;56427;51.580;4.656;2023-04-06T11:50:18;19.58;;;11.68;;
69305;SDS011;56427;51.580;4.656;2023-04-06T11:52:43;20.77;;;11.73;;
69305;SDS011;56427;51.580;4.656;2023-04-06T11:57:39;19.85;;;12.05;;
69305;SDS011;56427;51.580;4.656;2023-04-06T12:00:05;21.97;;;11.20;;
69305;SDS011;56427;51.580;4.656;2023-04-06T12:02:31;21.95;;;12.57;;
69305;SDS011;56427;51.580;4.656;2023-04-06T12:04:57;21.23;;;12.60;;
69305;SDS011;56427;51.580;4.656;2023-04-06T12:07:23;21.70;;;11.88;;
69305;SDS011;56427;51.580;4.656;2023-04-06T12:09:48;25.13;;;13.07;;
69305;SDS011;56427;51.580;4.656;2023-04-06T12:12:13;23.97;;;12.70;;
69305;SDS011;56427;51.580;4.656;2023-04-06T12:14:39;20.35;;;12.07;;
69305;SDS011;56427;51.580;4.656;2023-04-06T12:17:04;23.33;;;12.43;;
69305;SDS011;56427;51.580;4.656;2023-04-06T12:19:30;24.47;;;12.50;;
69305;SDS011;56427;51.580;4.656;2023-04-06T12:21:56;24.83;;;13.47;;
69305;SDS011;56427;51.580;4.656;2023-04-06T12:24:22;24.25;;;13.48;;
69305;SDS011;56427;51.580;4.656;2023-04-06T12:26:48;23.13;;;13.13;;
69305;SDS011;56427;51.580;4.656;2023-04-06T12:29:13;26.00;;;13.70;;
69305;SDS011;56427;51.580;4.656;2023-04-06T12:31:39;25.23;;;13.83;;
69305;SDS011;56427;51.580;4.656;2023-04-06T12:34:05;27.77;;;15.02;;
69305;SDS011;56427;51.580;4.656;2023-04-06T12:36:31;25.92;;;13.77;;
69305;SDS011;56427;51.580;4.656;2023-04-06T12:38:57;28.63;;;15.60;;
69305;SDS011;56427;51.580;4.656;2023-04-06T12:41:23;27.27;;;15.15;;
69305;SDS011;56427;51.580;4.656;2023-04-06T12:43:49;23.58;;;13.18;;
69305;SDS011;56427;51.580;4.656;2023-04-06T12:46:15;25.00;;;13.03;;
69305;SDS011;56427;51.580;4.656;2023-04-06T12:48:41;22.35;;;13.63;;
69305;SDS011;56427;51.580;4.656;2023-04-06T12:51:07;25.97;;;13.80;;
69305;SDS011;56427;51.580;4.656;2023-04-06T12:53:33;26.05;;;13.75;;
69305;SDS011;56427;51.580;4.656;2023-04-06T12:55:59;24.90;;;15.18;;
69305;SDS011;56427;51.580;4.656;2023-04-06T12:58:26;25.70;;;14.00;;
69305;SDS011;56427;51.580;4.656;2023-04-06T13:00:58;25.08;;;15.30;;
69305;SDS011;56427;51.580;4.656;2023-04-06T13:03:27;23.98;;;13.35;;
69305;SDS011;56427;51.580;4.656;2023-04-06T13:05:56;24.53;;;13.70;;
69305;SDS011;56427;51.580;4.656;2023-04-06T13:08:21;29.65;;;15.38;;
69305;SDS011;56427;51.580;4.656;2023-04-06T13:10:47;22.80;;;12.63;;
69305;SDS011;56427;51.580;4.656;2023-04-06T13:13:14;26.15;;;14.75;;
69305;SDS011;56427;51.580;4.656;2023-04-06T13:15:40;23.35;;;13.52;;
69305;SDS011;56427;51.580;4.656;2023-04-06T13:18:06;24.42;;;14.13;;
69305;SDS011;56427;51.580;4.656;2023-04-06T13:20:32;29.07;;;15.13;;
69305;SDS011;56427;51.580;4.656;2023-04-06T13:22:57;29.63;;;15.90;;
69305;SDS011;56427;51.580;4.656;2023-04-06T13:25:23;29.80;;;15.80;;
69305;SDS011;56427;51.580;4.656;2023-04-06T13:27:48;27.93;;;15.80;;
69305;SDS011;56427;51.580;4.656;2023-04-06T13:30:14;33.45;;;17.13;;
69305;SDS011;56427;51.580;4.656;2023-04-06T13:32:40;31.30;;;16.83;;
69305;SDS011;56427;51.580;4.656;2023-04-06T13:35:06;30.63;;;16.57;;
69305;SDS011;56427;51.580;4.656;2023-04-06T13:37:33;30.10;;;17.15;;
69305;SDS011;56427;51.580;4.656;2023-04-06T13:39:59;28.02;;;15.88;;
69305;SDS011;56427;51.580;4.656;2023-04-06T13:42:25;29.60;;;16.93;;
69305;SDS011;56427;51.580;4.656;2023-04-06T13:44:52;32.97;;;17.27;;
69305;SDS011;56427;51.580;4.656;2023-04-06T13:47:18;31.90;;;17.98;;
69305;SDS011;56427;51.580;4.656;2023-04-06T13:49:44;33.73;;;17.27;;
69305;SDS011;56427;51.580;4.656;2023-04-06T13:52:09;27.55;;;16.75;;
69305;SDS011;56427;51.580;4.656;2023-04-06T13:54:35;30.77;;;15.93;;
69305;SDS011;56427;51.580;4.656;2023-04-06T13:57:01;34.08;;;17.70;;
69305;SDS011;56427;51.580;4.656;2023-04-06T13:59:36;31.00;;;16.90;;
69305;SDS011;56427;51.580;4.656;2023-04-06T14:02:02;34.28;;;18.23;;
69305;SDS011;56427;51.580;4.656;2023-04-06T14:04:28;40.13;;;17.67;;
69305;SDS011;56427;51.580;4.656;2023-04-06T14:06:54;34.15;;;17.88;;
69305;SDS011;56427;51.580;4.656;2023-04-06T14:09:19;36.87;;;17.73;;
69305;SDS011;56427;51.580;4.656;2023-04-06T14:11:45;34.25;;;17.70;;
69305;SDS011;56427;51.580;4.656;2023-04-06T14:14:11;30.60;;;16.23;;
69305;SDS011;56427;51.580;4.656;2023-04-06T14:16:36;31.07;;;16.97;;
69305;SDS011;56427;51.580;4.656;2023-04-06T14:19:02;30.13;;;17.35;;
69305;SDS011;56427;51.580;4.656;2023-04-06T14:21:27;33.50;;;18.15;;
69305;SDS011;56427;51.580;4.656;2023-04-06T14:23:53;34.23;;;18.10;;
69305;SDS011;56427;51.580;4.656;2023-04-06T14:26:18;30.83;;;16.43;;